Time;durP1;ratioP1;P1;durP2;ratioP2;P2;SDS_P1;SDS_P2;PMS_P1;PMS_P2;Temp;Humidity;BMP_temperature;BMP_pressure;BME280_temperature;BME280_humidity;BME280_pressure;Samples;Min_cycle;Max_cycle;Signal;HPM_P1;HPM_P2
2021/05/03 00:00:57;;;;;;;9.83;3.43;;;;;;;;;;6347232;22;20437;-96
2021/05/03 00:03:24;;;;;;;6.63;3.10;;;;;;;;;;6348916;22;20408;-94
2021/05/03 00:05:56;;;;;;;12.10;3.60;;;;;;;;;;6347913;22;20415;-96
2021/05/03 00:08:22;;;;;;;10.43;3.83;;;;;;;;;;6348765;22;20411;-95
2021/05/03 00:10:48;;;;;;;11.47;3.20;;;;;;;;;;6348287;22;20415;-96
2021/05/03 00:13:14;;;;;;;14.70;5.40;;;;;;;;;;6350718;22;20411;-96
2021/05/03 00:15:40;;;;;;;11.57;4.50;;;;;;;;;;6350041;22;20462;-96
2021/05/03 00:18:06;;;;;;;14.37;4.03;;;;;;;;;;6362012;22;20387;-96
2021/05/03 00:20:33;;;;;;;12.00;4.00;;;;;;;;;;6357187;22;20417;-96
2021/05/03 00:22:59;;;;;;;14.73;4.13;;;;;;;;;;6348855;22;20395;-95
2021/05/03 00:25:26;;;;;;;16.87;4.83;;;;;;;;;;6350903;22;20425;-96
2021/05/03 00:27:52;;;;;;;14.07;4.00;;;;;;;;;;6350250;22;20415;-96
2021/05/03 00:30:18;;;;;;;14.53;4.03;;;;;;;;;;6352132;22;20410;-96
2021/05/03 00:32:44;;;;;;;14.63;4.23;;;;;;;;;;6354914;22;20892;-96
2021/05/03 00:35:11;;;;;;;8.67;3.60;;;;;;;;;;6358930;22;20443;-96
2021/05/03 00:37:38;;;;;;;10.67;4.50;;;;;;;;;;6361392;22;20513;-94
2021/05/03 00:40:04;;;;;;;16.60;4.43;;;;;;;;;;6364351;22;20486;-96
2021/05/03 00:42:30;;;;;;;16.10;4.40;;;;;;;;;;6359618;22;20407;-96
2021/05/03 00:44:59;;;;;;;13.20;4.60;;;;;;;;;;6358073;22;20401;-96
2021/05/03 00:47:26;;;;;;;22.37;3.87;;;;;;;;;;6350386;22;20414;-95
2021/05/03 00:49:52;;;;;;;11.13;4.20;;;;;;;;;;6349579;22;20403;-96
2021/05/03 00:52:18;;;;;;;13.90;4.50;;;;;;;;;;6344996;22;20442;-96
2021/05/03 00:54:45;;;;;;;12.03;4.13;;;;;;;;;;6349352;22;20438;-95
2021/05/03 00:57:11;;;;;;;11.03;4.90;;;;;;;;;;6348954;22;21283;-95
2021/05/03 00:59:38;;;;;;;15.37;4.80;;;;;;;;;;6350121;22;20411;-96
2021/05/03 01:02:04;;;;;;;15.93;5.10;;;;;;;;;;6350434;22;20403;-95
2021/05/03 01:04:30;;;;;;;9.20;4.23;;;;;;;;;;6348342;22;20916;-95
2021/05/03 01:06:56;;;;;;;14.30;6.57;;;;;;;;;;6351141;22;20983;-96
2021/05/03 01:09:22;;;;;;;17.93;4.73;;;;;;;;;;6348687;22;20433;-95
2021/05/03 01:11:49;;;;;;;9.20;3.87;;;;;;;;;;6349732;22;20414;-95
2021/05/03 01:14:15;;;;;;;17.60;4.30;;;;;;;;;;6347687;22;20435;-96
2021/05/03 01:16:41;;;;;;;11.53;4.00;;;;;;;;;;6349368;22;20454;-96
2021/05/03 01:19:08;;;;;;;11.33;4.10;;;;;;;;;;6348975;22;20396;-96
2021/05/03 01:21:35;;;;;;;12.17;3.93;;;;;;;;;;6349959;22;20403;-95
2021/05/03 01:24:01;;;;;;;15.50;4.17;;;;;;;;;;6347680;22;20407;-96
2021/05/03 01:26:27;;;;;;;13.53;4.50;;;;;;;;;;6356377;22;20422;-95
2021/05/03 01:28:53;;;;;;;9.83;4.13;;;;;;;;;;6351421;22;20418;-95
2021/05/03 01:31:19;;;;;;;11.33;5.03;;;;;;;;;;6348099;22;20407;-96
2021/05/03 01:33:45;;;;;;;11.97;3.83;;;;;;;;;;6344814;22;20403;-95
2021/05/03 01:36:11;;;;;;;15.50;3.43;;;;;;;;;;6348648;22;20449;-96
2021/05/03 01:38:38;;;;;;;10.73;4.37;;;;;;;;;;6359996;22;20469;-96
2021/05/03 01:41:05;;;;;;;14.90;4.40;;;;;;;;;;6352464;22;20396;-96
2021/05/03 01:43:31;;;;;;;8.40;4.30;;;;;;;;;;6350270;22;20514;-96
2021/05/03 01:45:58;;;;;;;8.70;3.90;;;;;;;;;;6349068;22;20919;-96
2021/05/03 01:48:25;;;;;;;11.13;3.93;;;;;;;;;;6349602;22;20495;-96
2021/05/03 01:50:52;;;;;;;19.83;4.97;;;;;;;;;;6349963;22;20418;-95
2021/05/03 01:53:18;;;;;;;16.83;4.20;;;;;;;;;;6351248;22;20399;-96
2021/05/03 01:55:45;;;;;;;10.40;3.80;;;;;;;;;;6350744;22;20446;-95
2021/05/03 01:58:14;;;;;;;11.53;4.30;;;;;;;;;;6355297;22;20437;-96
2021/05/03 02:03:18;;;;;;;16.80;3.70;;;;;;;;;;6344182;22;20447;-96
2021/05/03 02:05:44;;;;;;;10.13;4.70;;;;;;;;;;6354302;22;20169;-96
2021/05/03 02:08:13;;;;;;;16.17;4.10;;;;;;;;;;6361554;22;20395;-96
2021/05/03 02:10:41;;;;;;;10.13;3.90;;;;;;;;;;6350304;22;20501;-96
2021/05/03 02:13:08;;;;;;;12.40;3.93;;;;;;;;;;6347550;22;20931;-93
2021/05/03 02:15:34;;;;;;;20.23;4.57;;;;;;;;;;6346057;22;20454;-96
2021/05/03 02:18:01;;;;;;;12.90;4.50;;;;;;;;;;6347277;22;20433;-95
2021/05/03 02:20:27;;;;;;;12.97;4.37;;;;;;;;;;6348570;22;20403;-95
2021/05/03 02:22:53;;;;;;;9.67;4.10;;;;;;;;;;6349197;22;20464;-96
2021/05/03 02:25:19;;;;;;;12.90;5.10;;;;;;;;;;6350620;22;20417;-96
2021/05/03 02:27:45;;;;;;;11.50;4.90;;;;;;;;;;6348100;22;20470;-96
2021/05/03 02:30:13;;;;;;;9.90;3.67;;;;;;;;;;6349993;22;20407;-96
2021/05/03 02:32:40;;;;;;;12.80;4.40;;;;;;;;;;6349949;22;20478;-96
2021/05/03 02:35:07;;;;;;;13.43;4.00;;;;;;;;;;6349879;22;20439;-96
2021/05/03 02:37:33;;;;;;;14.33;4.43;;;;;;;;;;6347210;22;20419;-96
2021/05/03 02:39:59;;;;;;;12.90;4.60;;;;;;;;;;6349012;22;20470;-96
2021/05/03 02:42:25;;;;;;;10.93;4.43;;;;;;;;;;6348821;22;20414;-96
2021/05/03 02:47:59;;;;;;;10.87;5.60;;;;;;;;;;6348262;22;20407;-96
2021/05/03 02:50:27;;;;;;;11.40;5.03;;;;;;;;;;6360296;22;20482;-96
2021/05/03 02:53:02;;;;;;;12.00;4.20;;;;;;;;;;6359043;22;20462;-96
2021/05/03 02:58:15;;;;;;;10.80;3.90;;;;;;;;;;6346204;22;20427;-96
2021/05/03 03:00:41;;;;;;;11.63;3.73;;;;;;;;;;6356082;22;20437;-96
2021/05/03 03:03:08;;;;;;;10.27;3.63;;;;;;;;;;6348680;22;20419;-96
2021/05/03 03:05:35;;;;;;;7.90;4.13;;;;;;;;;;6354796;22;20415;-96
2021/05/03 03:08:02;;;;;;;8.97;4.80;;;;;;;;;;6347594;22;20436;-96
2021/05/03 03:10:29;;;;;;;11.37;3.90;;;;;;;;;;6349117;22;20399;-96
2021/05/03 03:12:55;;;;;;;11.87;3.83;;;;;;;;;;6351289;22;20407;-96
2021/05/03 03:15:23;;;;;;;15.37;4.90;;;;;;;;;;6347297;22;20444;-96
2021/05/03 03:17:50;;;;;;;13.33;4.50;;;;;;;;;;6346396;22;20407;-96
2021/05/03 03:20:17;;;;;;;6.40;3.67;;;;;;;;;;6346840;22;20411;-96
2021/05/03 03:22:44;;;;;;;13.13;4.30;;;;;;;;;;6346060;22;20418;-96
2021/05/03 03:25:10;;;;;;;15.93;5.20;;;;;;;;;;6348813;22;20760;-96
2021/05/03 03:27:36;;;;;;;17.47;4.90;;;;;;;;;;6347809;22;20426;-96
2021/05/03 03:30:03;;;;;;;13.87;4.50;;;;;;;;;;6347094;22;20491;-95
2021/05/03 03:32:44;;;;;;;17.20;4.47;;;;;;;;;;6352849;22;20410;-96
2021/05/03 03:35:11;;;;;;;8.73;4.47;;;;;;;;;;6321185;22;20441;-96
2021/05/03 03:37:38;;;;;;;11.60;3.90;;;;;;;;;;6350336;22;20399;-96
2021/05/03 03:40:05;;;;;;;10.90;4.67;;;;;;;;;;6320689;22;20403;-96
2021/05/03 03:42:31;;;;;;;11.73;3.80;;;;;;;;;;6348503;22;20448;-95
2021/05/03 03:44:58;;;;;;;11.50;4.17;;;;;;;;;;6347612;22;20431;-95
2021/05/03 03:47:24;;;;;;;9.90;4.67;;;;;;;;;;6356669;22;20417;-96
2021/05/03 03:49:50;;;;;;;10.23;4.30;;;;;;;;;;6359793;22;20407;-95
2021/05/03 03:52:16;;;;;;;13.80;4.20;;;;;;;;;;6350991;22;20433;-96
2021/05/03 03:54:44;;;;;;;11.23;4.40;;;;;;;;;;6364735;22;20415;-96
2021/05/03 03:57:10;;;;;;;10.73;4.70;;;;;;;;;;6359638;22;20545;-96
2021/05/03 03:59:51;;;;;;;16.67;4.53;;;;;;;;;;6367607;22;20455;-96
2021/05/03 04:02:18;;;;;;;15.57;4.57;;;;;;;;;;6357800;22;20415;-96
2021/05/03 04:04:50;;;;;;;11.27;4.60;;;;;;;;;;6349297;22;20405;-96
2021/05/03 04:07:21;;;;;;;9.87;4.20;;;;;;;;;;6349622;22;20411;-95
2021/05/03 04:09:55;;;;;;;11.17;4.47;;;;;;;;;;6349445;22;20510;-96
2021/05/03 04:26:03;;;;;;;9.20;4.07;;;;;;;;;;5151840;27;948596;-96
2021/05/03 04:28:29;;;;;;;9.47;3.90;;;;;;;;;;5172565;27;20698;-96
2021/05/03 04:30:55;;;;;;;6.27;3.80;;;;;;;;;;5178647;27;20458;-96
2021/05/03 04:33:21;;;;;;;8.23;4.00;;;;;;;;;;5169360;27;20446;-96
2021/05/03 04:35:47;;;;;;;10.40;3.63;;;;;;;;;;5170932;27;20449;-96
2021/05/03 04:38:13;;;;;;;10.20;3.60;;;;;;;;;;5174712;27;21293;-96
2021/05/03 04:40:45;;;;;;;8.07;3.50;;;;;;;;;;5161773;27;20442;-96
2021/05/03 04:43:14;;;;;;;14.30;4.33;;;;;;;;;;5178838;27;20484;-96
2021/05/03 04:45:40;;;;;;;10.00;3.60;;;;;;;;;;5166702;27;20484;-96
2021/05/03 04:48:07;;;;;;;8.50;3.60;;;;;;;;;;5170660;27;20440;-95
2021/05/03 04:50:33;;;;;;;10.70;4.40;;;;;;;;;;5173482;27;20460;-96
2021/05/03 04:53:00;;;;;;;13.20;4.17;;;;;;;;;;5171477;27;20454;-96
2021/05/03 04:55:26;;;;;;;11.50;4.50;;;;;;;;;;5162663;27;20945;-96
2021/05/03 04:57:52;;;;;;;12.43;4.40;;;;;;;;;;5166214;27;20457;-96
2021/05/03 05:00:20;;;;;;;16.60;5.80;;;;;;;;;;5183313;27;20447;-96
2021/05/03 05:02:46;;;;;;;15.50;4.83;;;;;;;;;;5173512;27;20461;-96
2021/05/03 05:05:17;;;;;;;11.00;3.87;;;;;;;;;;5179497;27;21238;-96
2021/05/03 05:07:43;;;;;;;12.50;4.50;;;;;;;;;;5169779;27;20467;-95
2021/05/03 05:10:11;;;;;;;11.87;4.93;;;;;;;;;;5171478;27;20453;-96
2021/05/03 05:12:37;;;;;;;16.60;5.10;;;;;;;;;;5174342;27;20446;-95
2021/05/03 05:15:03;;;;;;;14.93;5.00;;;;;;;;;;5172653;27;20461;-96
2021/05/03 05:17:31;;;;;;;12.07;4.33;;;;;;;;;;5169210;27;20452;-96
2021/05/03 05:19:57;;;;;;;19.57;5.20;;;;;;;;;;5170063;27;20488;-95
2021/05/03 05:22:23;;;;;;;12.30;5.10;;;;;;;;;;5162699;27;20430;-95
2021/05/03 05:24:49;;;;;;;10.80;5.33;;;;;;;;;;5177444;27;20476;-96
2021/05/03 05:27:16;;;;;;;12.17;5.20;;;;;;;;;;5186730;27;20493;-96
2021/05/03 05:29:42;;;;;;;14.50;5.43;;;;;;;;;;5168549;27;20461;-95
2021/05/03 05:32:09;;;;;;;13.03;4.83;;;;;;;;;;5161712;27;20454;-96
2021/05/03 05:34:36;;;;;;;11.90;5.73;;;;;;;;;;5166070;27;20485;-96
2021/05/03 05:37:03;;;;;;;20.93;5.77;;;;;;;;;;5158148;27;20479;-96
2021/05/03 05:39:33;;;;;;;10.80;5.00;;;;;;;;;;5154453;27;20434;-96
2021/05/03 05:42:03;;;;;;;14.57;5.43;;;;;;;;;;5160266;27;20856;-96
2021/05/03 05:44:29;;;;;;;18.97;6.53;;;;;;;;;;5156419;27;20490;-96
2021/05/03 05:46:55;;;;;;;13.93;7.40;;;;;;;;;;5154745;27;20450;-96
2021/05/03 05:52:03;;;;;;;13.70;6.93;;;;;;;;;;5154758;27;20463;-96
2021/05/03 05:54:29;;;;;;;20.13;6.80;;;;;;;;;;5154259;27;20499;-96
2021/05/03 05:56:55;;;;;;;15.47;6.20;;;;;;;;;;5157440;27;20533;-96
2021/05/03 05:59:22;;;;;;;12.47;5.70;;;;;;;;;;5145904;27;21031;-96
2021/05/03 06:01:48;;;;;;;12.63;6.10;;;;;;;;;;5150188;27;20455;-96
2021/05/03 06:04:14;;;;;;;20.00;6.33;;;;;;;;;;5151016;27;20465;-95
2021/05/03 06:06:41;;;;;;;16.13;6.67;;;;;;;;;;5142645;27;20475;-96
2021/05/03 06:09:08;;;;;;;29.93;11.90;;;;;;;;;;5156080;27;20474;-96
2021/05/03 06:11:34;;;;;;;15.67;7.30;;;;;;;;;;5157038;27;20457;-96
2021/05/03 06:14:00;;;;;;;13.77;4.90;;;;;;;;;;5132472;27;20478;-96
2021/05/03 06:16:26;;;;;;;8.73;4.40;;;;;;;;;;5140180;27;20461;-96
2021/05/03 06:18:54;;;;;;;11.03;5.33;;;;;;;;;;5144588;27;20462;-95
2021/05/03 06:21:20;;;;;;;23.70;11.30;;;;;;;;;;5154136;27;20446;-96
2021/05/03 06:23:46;;;;;;;20.00;9.77;;;;;;;;;;5152471;27;20827;-95
2021/05/03 06:26:13;;;;;;;15.40;6.70;;;;;;;;;;5160019;27;21029;-96
2021/05/03 06:28:39;;;;;;;16.53;7.50;;;;;;;;;;5144706;27;20468;-96
2021/05/03 06:31:05;;;;;;;43.37;18.87;;;;;;;;;;5145078;27;20468;-96
2021/05/03 06:33:31;;;;;;;43.00;17.67;;;;;;;;;;5154703;27;20454;-95
2021/05/03 06:35:58;;;;;;;11.20;5.00;;;;;;;;;;5148372;27;20866;-96
2021/05/03 06:38:24;;;;;;;17.20;8.50;;;;;;;;;;5151400;27;20462;-96
2021/05/03 06:40:50;;;;;;;19.20;5.97;;;;;;;;;;5150336;27;20524;-96
2021/05/03 06:43:19;;;;;;;18.63;4.20;;;;;;;;;;5154747;27;20454;-96
2021/05/03 06:45:45;;;;;;;10.83;4.40;;;;;;;;;;5150050;27;20491;-95
2021/05/03 06:48:12;;;;;;;10.13;3.70;;;;;;;;;;5150531;27;20453;-96
2021/05/03 06:50:41;;;;;;;13.20;4.60;;;;;;;;;;5152141;27;20448;-95
2021/05/03 06:53:07;;;;;;;14.93;4.80;;;;;;;;;;5154907;27;20456;-96
2021/05/03 06:55:33;;;;;;;14.63;4.67;;;;;;;;;;5148360;27;20460;-96
2021/05/03 06:57:59;;;;;;;15.40;4.67;;;;;;;;;;5157855;27;20837;-96
2021/05/03 07:00:26;;;;;;;14.60;5.30;;;;;;;;;;5158990;27;20460;-96
2021/05/03 07:02:52;;;;;;;14.10;5.30;;;;;;;;;;5157624;27;20461;-96
2021/05/03 07:05:19;;;;;;;11.57;4.90;;;;;;;;;;5163787;27;20495;-96
2021/05/03 07:07:45;;;;;;;11.80;4.80;;;;;;;;;;5160194;27;20453;-96
2021/05/03 07:10:12;;;;;;;8.60;5.63;;;;;;;;;;5159895;27;20456;-94
2021/05/03 07:12:43;;;;;;;15.10;6.60;;;;;;;;;;5159596;27;20451;-96
2021/05/03 07:15:10;;;;;;;7.80;3.70;;;;;;;;;;5167909;27;20448;-96
2021/05/03 07:20:39;;;;;;;14.93;5.67;;;;;;;;;;5008479;28;20451;-96
2021/05/03 07:23:09;;;;;;;7.10;4.23;;;;;;;;;;5100374;23;20485;-95
2021/05/03 07:25:35;;;;;;;8.80;4.23;;;;;;;;;;5025304;28;20499;-94
2021/05/03 07:28:02;;;;;;;131.87;9.27;;;;;;;;;;5016568;28;20465;-96
2021/05/03 07:30:29;;;;;;;6.80;3.63;;;;;;;;;;5161604;23;20590;-96
2021/05/03 07:32:59;;;;;;;8.50;4.37;;;;;;;;;;5032196;23;20498;-96
2021/05/03 07:35:31;;;;;;;8.23;3.67;;;;;;;;;;5014987;23;20896;-96
2021/05/03 07:37:57;;;;;;;6.67;4.70;;;;;;;;;;5040113;28;20490;-96
2021/05/03 07:40:24;;;;;;;9.00;4.33;;;;;;;;;;5037461;28;20465;-96
2021/05/03 07:42:51;;;;;;;9.17;3.70;;;;;;;;;;5042925;28;20551;-96
2021/05/03 07:45:24;;;;;;;8.60;3.83;;;;;;;;;;5046290;28;20482;-96
2021/05/03 07:47:59;;;;;;;7.23;4.00;;;;;;;;;;5060209;23;20518;-96
2021/05/03 07:53:09;;;;;;;6.97;4.00;;;;;;;;;;5027035;28;20468;-96
2021/05/03 07:55:39;;;;;;;14.27;5.20;;;;;;;;;;5030545;28;20443;-95
2021/05/03 07:58:06;;;;;;;13.17;4.53;;;;;;;;;;5041545;23;20479;-94
2021/05/03 08:00:32;;;;;;;11.73;4.10;;;;;;;;;;5019406;28;20456;-96
2021/05/03 08:02:58;;;;;;;11.83;4.03;;;;;;;;;;5027491;23;20503;-96
2021/05/03 08:05:25;;;;;;;9.33;3.87;;;;;;;;;;5083249;23;20499;-95
2021/05/03 08:07:51;;;;;;;4.93;3.13;;;;;;;;;;5008765;28;20469;-96
2021/05/03 08:10:18;;;;;;;5.60;3.60;;;;;;;;;;5007996;28;20455;-96
2021/05/03 08:12:47;;;;;;;9.73;4.10;;;;;;;;;;5027373;28;20531;-96
2021/05/03 08:15:15;;;;;;;7.57;2.70;;;;;;;;;;5015750;28;20464;-94
2021/05/03 08:17:55;;;;;;;6.10;2.67;;;;;;;;;;5019031;28;20453;-96
2021/05/03 08:20:21;;;;;;;8.17;2.90;;;;;;;;;;5011134;28;20472;-94
2021/05/03 08:22:53;;;;;;;5.83;3.00;;;;;;;;;;5011579;28;20448;-96
2021/05/03 08:25:19;;;;;;;5.13;2.60;;;;;;;;;;5016803;28;20504;-94
2021/05/03 08:27:45;;;;;;;5.20;2.20;;;;;;;;;;5008589;28;20444;-96
2021/05/03 08:30:14;;;;;;;4.90;2.67;;;;;;;;;;5008372;28;20453;-95
2021/05/03 08:35:20;;;;;;;10.23;2.57;;;;;;;;;;5012690;28;20443;-96
2021/05/03 08:37:46;;;;;;;5.43;2.17;;;;;;;;;;5017301;28;20452;-96
2021/05/03 08:40:13;;;;;;;4.50;2.37;;;;;;;;;;5023760;28;20452;-96
2021/05/03 08:42:44;;;;;;;3.03;2.13;;;;;;;;;;5020402;28;20468;-96
2021/05/03 08:45:12;;;;;;;3.90;2.20;;;;;;;;;;5029087;28;20530;-96
2021/05/03 08:47:41;;;;;;;4.20;2.70;;;;;;;;;;5023771;28;20444;-95
2021/05/03 08:50:11;;;;;;;6.87;2.63;;;;;;;;;;5028157;28;20456;-95
2021/05/03 08:52:43;;;;;;;11.73;2.30;;;;;;;;;;5013518;28;20487;-94
2021/05/03 08:55:13;;;;;;;3.37;2.27;;;;;;;;;;5017801;28;20453;-95
2021/05/03 08:57:41;;;;;;;9.90;3.20;;;;;;;;;;5018186;28;20484;-94
2021/05/03 09:00:11;;;;;;;5.50;2.90;;;;;;;;;;5022969;28;20452;-93
2021/05/03 09:02:40;;;;;;;9.57;2.70;;;;;;;;;;5018585;28;20525;-96
2021/05/03 09:05:07;;;;;;;6.43;2.50;;;;;;;;;;5014814;28;20498;-94
2021/05/03 09:07:33;;;;;;;6.87;3.00;;;;;;;;;;5005596;28;20451;-96
2021/05/03 09:10:02;;;;;;;4.10;1.97;;;;;;;;;;5002736;28;20496;-96
2021/05/03 09:12:28;;;;;;;4.73;2.27;;;;;;;;;;5014526;28;20591;-94
2021/05/03 09:15:02;;;;;;;4.97;2.00;;;;;;;;;;5021872;28;20443;-94
2021/05/03 09:17:29;;;;;;;5.63;2.60;;;;;;;;;;5013824;28;20459;-96
2021/05/03 09:22:51;;;;;;;3.13;2.20;;;;;;;;;;4967482;29;20466;-96
2021/05/03 09:25:21;;;;;;;5.67;2.10;;;;;;;;;;4962164;29;20560;-94
2021/05/03 09:27:48;;;;;;;3.93;2.40;;;;;;;;;;4968232;29;20448;-94
2021/05/03 09:30:18;;;;;;;6.63;2.57;;;;;;;;;;4961975;29;20494;-96
2021/05/03 09:32:47;;;;;;;4.53;2.30;;;;;;;;;;4969859;29;20443;-96
2021/05/03 09:35:13;;;;;;;4.90;2.53;;;;;;;;;;4957423;29;20453;-94
2021/05/03 09:37:45;;;;;;;3.73;3.33;;;;;;;;;;4965702;28;20518;-96
2021/05/03 09:40:18;;;;;;;5.07;2.63;;;;;;;;;;4975822;29;20445;-95
2021/05/03 09:42:51;;;;;;;7.73;2.83;;;;;;;;;;4966512;29;20453;-96
2021/05/03 09:45:18;;;;;;;5.90;3.37;;;;;;;;;;5048005;23;20530;-96
2021/05/03 09:47:46;;;;;;;5.47;2.10;;;;;;;;;;4996638;28;20461;-96
2021/05/03 09:50:27;;;;;;;3.03;2.00;;;;;;;;;;4997065;28;20451;-96
2021/05/03 09:53:19;;;;;;;3.53;2.10;;;;;;;;;;5052057;22;20506;-96
2021/05/03 09:55:51;;;;;;;7.23;2.63;;;;;;;;;;5033118;28;20459;-95
2021/05/03 09:58:26;;;;;;;4.87;2.10;;;;;;;;;;5034715;28;20443;-96
2021/05/03 10:00:54;;;;;;;5.60;2.47;;;;;;;;;;5033725;28;20466;-95
2021/05/03 10:03:28;;;;;;;4.53;2.23;;;;;;;;;;5033632;28;20442;-96
2021/05/03 10:05:54;;;;;;;3.33;2.30;;;;;;;;;;5027769;28;20505;-96
2021/05/03 10:08:28;;;;;;;4.53;2.80;;;;;;;;;;5032204;28;20436;-95
2021/05/03 10:10:59;;;;;;;4.93;3.23;;;;;;;;;;5031476;28;20475;-96
2021/05/03 10:13:34;;;;;;;3.23;2.33;;;;;;;;;;5030207;28;20444;-95
2021/05/03 10:18:36;;;;;;;5.03;2.20;;;;;;;;;;4972076;29;20470;-95
2021/05/03 10:21:03;;;;;;;8.50;2.30;;;;;;;;;;4966933;29;20441;-95
2021/05/03 10:23:37;;;;;;;4.07;2.23;;;;;;;;;;4953515;29;20464;-96
2021/05/03 10:28:55;;;;;;;5.33;2.43;;;;;;;;;;5029677;28;20482;-96
2021/05/03 10:31:24;;;;;;;5.90;2.07;;;;;;;;;;5041465;22;20593;-96
2021/05/03 10:33:52;;;;;;;4.20;2.40;;;;;;;;;;5036411;28;20450;-96
2021/05/03 10:36:32;;;;;;;5.80;2.40;;;;;;;;;;5035208;28;20463;-96
2021/05/03 10:38:58;;;;;;;3.23;2.40;;;;;;;;;;5039724;28;20460;-95
2021/05/03 10:41:27;;;;;;;5.57;2.40;;;;;;;;;;5023576;23;20467;-96
2021/05/03 10:44:09;;;;;;;4.07;2.50;;;;;;;;;;5031373;28;20467;-96
2021/05/03 10:49:31;;;;;;;4.07;2.37;;;;;;;;;;5032641;28;20479;-95
2021/05/03 10:52:01;;;;;;;3.10;2.10;;;;;;;;;;5031528;28;20448;-96
2021/05/03 10:57:45;;;;;;;3.50;2.40;;;;;;;;;;4990971;28;20457;-96
2021/05/03 11:02:47;;;;;;;6.10;2.40;;;;;;;;;;4670698;26;20529;-96
2021/05/03 11:05:24;;;;;;;3.87;2.53;;;;;;;;;;5004324;28;20477;-95
2021/05/03 11:08:09;;;;;;;3.53;2.40;;;;;;;;;;4998430;28;20463;-95
2021/05/03 11:10:55;;;;;;;5.50;2.17;;;;;;;;;;5009330;28;20500;-96
2021/05/03 11:13:50;;;;;;;5.77;2.40;;;;;;;;;;4988874;28;20454;-96
2021/05/03 11:16:34;;;;;;;3.77;2.20;;;;;;;;;;4947645;28;20452;-95
2021/05/03 11:19:02;;;;;;;6.30;2.60;;;;;;;;;;4993693;28;20462;-96
2021/05/03 11:21:39;;;;;;;4.40;2.33;;;;;;;;;;4976518;28;20456;-96
2021/05/03 11:24:14;;;;;;;3.43;2.40;;;;;;;;;;4995654;28;20521;-96
2021/05/03 11:26:47;;;;;;;3.37;2.33;;;;;;;;;;5000960;28;20452;-95
2021/05/03 11:32:17;;;;;;;6.60;2.70;;;;;;;;;;5000717;28;20427;-95
2021/05/03 11:35:07;;;;;;;6.07;2.87;;;;;;;;;;4991663;28;20442;-96
2021/05/03 11:37:42;;;;;;;4.47;2.20;;;;;;;;;;4992800;28;20538;-96
2021/05/03 11:48:01;;;;;;;4.37;2.60;;;;;;;;;;5018841;28;20539;-96
2021/05/03 11:50:29;;;;;;;5.37;2.60;;;;;;;;;;5012244;28;20453;-96
2021/05/03 11:52:59;;;;;;;3.73;2.63;;;;;;;;;;5013222;28;20441;-96
2021/05/03 11:55:31;;;;;;;4.77;2.57;;;;;;;;;;5026517;23;20527;-96
2021/05/03 11:57:58;;;;;;;5.60;3.20;;;;;;;;;;5029010;28;20431;-96
2021/05/03 12:00:31;;;;;;;3.43;2.33;;;;;;;;;;5022817;28;20445;-96
2021/05/03 12:05:46;;;;;;;3.17;2.80;;;;;;;;;;5038134;23;20566;-96
2021/05/03 12:11:17;;;;;;;3.10;2.80;;;;;;;;;;5023014;28;20463;-96
2021/05/03 12:19:15;;;;;;;8.40;2.80;;;;;;;;;;5114597;22;20467;-96
2021/05/03 12:21:59;;;;;;;6.40;3.57;;;;;;;;;;5043310;28;20459;-96
2021/05/03 12:27:09;;;;;;;7.60;3.40;;;;;;;;;;5048262;28;20466;-96
2021/05/03 12:29:37;;;;;;;6.40;3.60;;;;;;;;;;5047735;28;20459;-96
2021/05/03 12:32:08;;;;;;;6.20;3.40;;;;;;;;;;5042333;28;20833;-96
2021/05/03 12:34:38;;;;;;;6.40;3.80;;;;;;;;;;5054341;28;20451;-96
2021/05/03 12:37:10;;;;;;;6.33;3.67;;;;;;;;;;5106689;22;20464;-96
2021/05/03 12:39:57;;;;;;;8.13;4.00;;;;;;;;;;5040802;28;20531;-96
2021/05/03 12:42:26;;;;;;;6.67;3.43;;;;;;;;;;5026697;28;20460;-96
2021/05/03 12:45:01;;;;;;;5.27;3.60;;;;;;;;;;5036632;28;20488;-94
2021/05/03 12:47:37;;;;;;;4.17;3.07;;;;;;;;;;5040126;28;20542;-96
2021/05/03 12:50:14;;;;;;;5.50;3.77;;;;;;;;;;5050326;22;20584;-96
2021/05/03 12:52:46;;;;;;;4.07;3.30;;;;;;;;;;5013775;28;20425;-96
2021/05/03 12:55:27;;;;;;;7.43;3.50;;;;;;;;;;4992680;28;20452;-95
2021/05/03 12:58:02;;;;;;;3.83;3.53;;;;;;;;;;5010264;28;20475;-94
2021/05/03 13:00:34;;;;;;;3.83;3.27;;;;;;;;;;5001476;28;20424;-96
2021/05/03 13:03:12;;;;;;;4.23;3.40;;;;;;;;;;5011744;28;20455;-96
2021/05/03 13:05:50;;;;;;;4.83;3.40;;;;;;;;;;5011206;28;20559;-95
2021/05/03 13:08:49;;;;;;;5.33;3.50;;;;;;;;;;5014875;28;20449;-95
2021/05/03 13:22:56;;;;;;;4.07;3.60;;;;;;;;;;5004902;28;20480;-96
2021/05/03 13:25:36;;;;;;;6.60;3.17;;;;;;;;;;4998081;28;20480;-96
2021/05/03 13:28:06;;;;;;;10.03;3.90;;;;;;;;;;4997088;28;20465;-96
2021/05/03 13:30:33;;;;;;;7.80;3.50;;;;;;;;;;5001447;28;20454;-96
2021/05/03 13:32:59;;;;;;;4.80;3.23;;;;;;;;;;5003324;28;20444;-96
2021/05/03 13:35:25;;;;;;;6.40;3.23;;;;;;;;;;5004623;28;20448;-96
2021/05/03 13:37:54;;;;;;;6.23;3.30;;;;;;;;;;5017374;28;20433;-96
2021/05/03 13:40:20;;;;;;;4.30;3.47;;;;;;;;;;4998847;28;20526;-95
2021/05/03 13:42:52;;;;;;;6.37;3.47;;;;;;;;;;4988689;28;20458;-95
2021/05/03 13:45:21;;;;;;;6.70;3.87;;;;;;;;;;4996507;28;20496;-95
2021/05/03 13:47:47;;;;;;;4.60;3.17;;;;;;;;;;4986000;28;20452;-96
2021/05/03 13:50:14;;;;;;;4.90;3.30;;;;;;;;;;4989233;28;20466;-96
2021/05/03 13:52:40;;;;;;;5.90;3.70;;;;;;;;;;5002461;28;20488;-94
2021/05/03 13:55:12;;;;;;;6.83;3.80;;;;;;;;;;5009842;28;20460;-96
2021/05/03 13:57:40;;;;;;;4.33;3.13;;;;;;;;;;5007813;23;20521;-95
2021/05/03 14:00:08;;;;;;;4.30;3.90;;;;;;;;;;4947331;29;20672;-96
2021/05/03 14:05:15;;;;;;;4.13;3.30;;;;;;;;;;4968933;28;20494;-95
2021/05/03 14:07:41;;;;;;;4.70;3.73;;;;;;;;;;4978130;28;20442;-96
2021/05/03 14:10:16;;;;;;;12.00;4.20;;;;;;;;;;4971992;28;20459;-96
2021/05/03 14:13:06;;;;;;;5.10;3.40;;;;;;;;;;5018787;23;20502;-94
2021/05/03 14:15:36;;;;;;;7.23;3.67;;;;;;;;;;5019518;28;20540;-95
2021/05/03 14:18:02;;;;;;;9.10;4.00;;;;;;;;;;5043720;28;20454;-95
2021/05/03 14:20:28;;;;;;;8.40;4.17;;;;;;;;;;5033903;28;20461;-94
2021/05/03 14:22:54;;;;;;;5.20;3.73;;;;;;;;;;5039105;28;20446;-95
2021/05/03 14:25:31;;;;;;;6.87;3.67;;;;;;;;;;5035736;28;20571;-96
2021/05/03 14:28:01;;;;;;;4.90;3.73;;;;;;;;;;5035167;28;20457;-96
2021/05/03 14:30:41;;;;;;;5.33;3.93;;;;;;;;;;5048317;28;20434;-96
2021/05/03 14:33:17;;;;;;;6.07;3.80;;;;;;;;;;5043575;28;20432;-96
2021/05/03 14:35:46;;;;;;;3.83;3.40;;;;;;;;;;5040101;28;20458;-93
2021/05/03 14:38:12;;;;;;;7.30;4.20;;;;;;;;;;5027280;28;20463;-96
2021/05/03 14:40:39;;;;;;;7.53;3.63;;;;;;;;;;5022914;28;20452;-95
2021/05/03 14:43:14;;;;;;;5.50;3.80;;;;;;;;;;5045290;28;20542;-96
2021/05/03 14:45:47;;;;;;;4.90;3.80;;;;;;;;;;5043428;28;20507;-95
2021/05/03 14:48:18;;;;;;;5.47;3.57;;;;;;;;;;5035446;28;20502;-96
2021/05/03 14:51:05;;;;;;;5.37;3.40;;;;;;;;;;5031709;28;20477;-95
2021/05/03 14:53:39;;;;;;;7.03;3.63;;;;;;;;;;5031724;28;20486;-95
2021/05/03 14:56:37;;;;;;;4.30;3.43;;;;;;;;;;5025939;28;20465;-95
2021/05/03 14:59:12;;;;;;;8.80;4.07;;;;;;;;;;5036042;28;20440;-94
2021/05/03 15:01:46;;;;;;;3.40;3.00;;;;;;;;;;5026192;28;20461;-96
2021/05/03 15:04:14;;;;;;;4.70;3.90;;;;;;;;;;5033941;28;20460;-96
2021/05/03 15:06:47;;;;;;;5.60;4.03;;;;;;;;;;5039352;28;20484;-95
2021/05/03 15:09:24;;;;;;;8.47;3.90;;;;;;;;;;5042368;28;20463;-93
2021/05/03 15:12:05;;;;;;;8.63;4.10;;;;;;;;;;5033259;28;20449;-93
2021/05/03 15:14:35;;;;;;;4.33;3.30;;;;;;;;;;5046937;28;20475;-96
2021/05/03 15:17:17;;;;;;;5.90;3.70;;;;;;;;;;5027852;28;20494;-94
2021/05/03 15:19:47;;;;;;;6.53;3.27;;;;;;;;;;5034789;28;20461;-95
2021/05/03 15:22:25;;;;;;;7.67;4.13;;;;;;;;;;5047185;28;20479;-96
2021/05/03 15:25:07;;;;;;;3.87;3.20;;;;;;;;;;5036342;28;20451;-95
2021/05/03 15:27:37;;;;;;;5.93;3.40;;;;;;;;;;5029145;28;20459;-95
2021/05/03 15:30:28;;;;;;;3.80;3.50;;;;;;;;;;5036214;28;20450;-96
2021/05/03 15:35:51;;;;;;;6.23;3.90;;;;;;;;;;5039941;28;20439;-96
2021/05/03 15:38:17;;;;;;;4.40;3.27;;;;;;;;;;5040952;28;20482;-93
2021/05/03 15:40:43;;;;;;;3.83;3.37;;;;;;;;;;5042621;28;20462;-96
2021/05/03 15:43:14;;;;;;;5.70;3.13;;;;;;;;;;5030178;28;20467;-96
2021/05/03 15:45:48;;;;;;;4.60;3.57;;;;;;;;;;5035839;28;20470;-96
2021/05/03 15:51:04;;;;;;;3.90;3.50;;;;;;;;;;5041921;28;20454;-94
2021/05/03 15:53:33;;;;;;;7.83;3.57;;;;;;;;;;5035645;28;20502;-96
2021/05/03 15:56:05;;;;;;;5.77;3.90;;;;;;;;;;5025361;28;20478;-96
2021/05/03 15:58:38;;;;;;;4.13;3.73;;;;;;;;;;5027224;28;20458;-96
2021/05/03 16:01:06;;;;;;;5.90;3.57;;;;;;;;;;5033883;28;20458;-93
2021/05/03 16:03:34;;;;;;;3.80;3.50;;;;;;;;;;5021719;28;20455;-92
2021/05/03 16:06:00;;;;;;;5.20;3.53;;;;;;;;;;5039274;28;20491;-96
2021/05/03 16:08:32;;;;;;;5.50;3.63;;;;;;;;;;5042162;28;20772;-96
2021/05/03 16:10:58;;;;;;;5.07;3.90;;;;;;;;;;5034681;28;20531;-94
2021/05/03 16:13:40;;;;;;;6.90;3.50;;;;;;;;;;5033729;28;20488;-96
2021/05/03 16:16:07;;;;;;;6.17;4.03;;;;;;;;;;5045173;28;20459;-94
2021/05/03 16:18:33;;;;;;;8.43;3.30;;;;;;;;;;5043072;28;20436;-93
2021/05/03 16:21:00;;;;;;;4.10;3.70;;;;;;;;;;5039429;28;20589;-93
2021/05/03 16:23:26;;;;;;;4.20;3.43;;;;;;;;;;5031774;28;20434;-96
2021/05/03 16:28:25;;;;;;;4.10;3.20;;;;;;;;;;5039065;23;20845;-94